Time;durP1;ratioP1;P1;durP2;ratioP2;P2;SDS_P1;SDS_P2;PMS_P1;PMS_P2;Temp;Humidity;BMP_temperature;BMP_pressure;BME280_temperature;BME280_humidity;BME280_pressure;Samples;Min_cycle;Max_cycle;Signal;HPM_P1;HPM_P2
2021/05/22 00:00:00;;;;;;;5.70;2.50;;;;;;;15.14;57.26;98340.42;263092;1100;114819;-66
2021/05/22 00:05:05;;;;;;;3.87;2.33;;;;;;;15.13;57.23;98337.91;263078;1099;115020;-66
2021/05/22 00:10:11;;;;;;;3.53;2.30;;;;;;;15.13;57.36;98305.73;263099;1104;114830;-66
2021/05/22 00:15:17;;;;;;;3.83;2.63;;;;;;;15.09;57.22;98312.38;263088;1100;114826;-66
2021/05/22 00:20:21;;;;;;;3.00;2.25;;;;;;;15.03;57.59;98304.90;262789;1104;114833;-66
2021/05/22 00:25:24;;;;;;;5.93;2.70;;;;;;;14.95;57.56;98296.73;262730;1102;114646;-67
2021/05/22 00:30:28;;;;;;;6.53;2.30;;;;;;;14.90;58.16;98268.50;263051;1104;114596;-66
2021/05/22 00:35:32;;;;;;;3.35;2.30;;;;;;;14.80;57.67;98272.17;263094;1099;114795;-67
2021/05/22 00:40:36;;;;;;;3.57;2.17;;;;;;;14.71;58.13;98264.97;263034;1104;114993;-65
2021/05/22 00:45:40;;;;;;;2.63;2.10;;;;;;;14.62;58.74;98255.97;263120;1099;115216;-66
2021/05/22 00:50:43;;;;;;;5.77;2.57;;;;;;;14.56;58.34;98260.03;263151;1099;114798;-66
2021/05/22 00:55:47;;;;;;;4.47;2.30;;;;;;;14.57;58.81;98260.88;263083;1098;115064;-66
2021/05/22 01:00:53;;;;;;;4.48;2.25;;;;;;;14.55;59.47;98269.06;262779;1104;114832;-65
2021/05/22 01:06:26;;;;;;;4.93;2.50;;;;;;;14.55;59.65;98265.55;262821;1100;115159;-67
2021/05/22 01:11:40;;;;;;;4.53;2.70;;;;;;;14.49;58.99;98261.55;262830;1104;114826;-65
2021/05/22 01:16:45;;;;;;;5.00;2.70;;;;;;;14.43;59.19;98262.97;263087;1100;115136;-66
2021/05/22 01:21:50;;;;;;;4.83;2.50;;;;;;;14.34;59.47;98255.77;263072;1104;115214;-66
2021/05/22 01:26:54;;;;;;;4.10;2.65;;;;;;;14.26;59.50;98252.06;263113;1100;114852;-66
2021/05/22 01:31:58;;;;;;;3.38;2.55;;;;;;;14.15;59.22;98242.33;263151;1104;115330;-65
2021/05/22 01:37:02;;;;;;;4.73;2.37;;;;;;;14.06;60.14;98244.02;262999;1099;114796;-66
2021/05/22 01:42:06;;;;;;;5.10;2.88;;;;;;;14.00;59.38;98233.02;263042;1104;115360;-66
2021/05/22 01:47:10;;;;;;;3.00;2.33;;;;;;;13.96;60.44;98209.20;263005;1099;115326;-66
2021/05/22 01:52:18;;;;;;;4.15;2.40;;;;;;;13.98;59.86;98202.86;263089;1104;115184;-64
2021/05/22 01:57:22;;;;;;;3.13;2.67;;;;;;;13.99;60.33;98205.39;262741;1100;115213;-66
2021/05/22 02:02:25;;;;;;;7.50;2.90;;;;;;;13.97;60.35;98204.70;262787;1104;114911;-65
2021/05/22 02:07:32;;;;;;;3.88;2.68;;;;;;;13.88;60.59;98190.30;262986;1099;114757;-65
2021/05/22 02:12:38;;;;;;;8.23;2.90;;;;;;;13.81;60.23;98196.34;263097;1104;115272;-67
2021/05/22 02:17:46;;;;;;;7.15;3.30;;;;;;;13.74;60.45;98201.39;263114;1100;114596;-67
2021/05/22 02:22:51;;;;;;;3.67;2.87;;;;;;;13.75;61.13;98205.74;263113;1103;115720;-66
2021/05/22 02:27:58;;;;;;;5.17;3.00;;;;;;;13.72;61.54;98206.02;263022;1100;114897;-66
2021/05/22 02:33:03;;;;;;;5.13;3.13;;;;;;;13.72;60.83;98198.86;263155;1103;115175;-65
2021/05/22 02:38:14;;;;;;;4.87;3.30;;;;;;;13.75;60.83;98203.06;263062;1099;114724;-65
2021/05/22 02:43:19;;;;;;;6.60;3.07;;;;;;;13.75;61.51;98202.23;262890;1104;114616;-67
2021/05/22 02:48:23;;;;;;;4.48;3.03;;;;;;;13.71;61.32;98199.82;262821;1100;116193;-66
2021/05/22 02:53:28;;;;;;;6.55;3.43;;;;;;;13.63;61.30;98193.48;262978;1104;114552;-67
2021/05/22 02:58:41;;;;;;;5.20;2.93;;;;;;;13.53;61.08;98200.61;262768;1100;114629;-67
2021/05/22 03:03:45;;;;;;;5.73;3.23;;;;;;;13.45;61.40;98193.23;263047;1104;114698;-67
2021/05/22 03:08:50;;;;;;;5.00;3.13;;;;;;;13.35;61.43;98190.55;262739;1100;114795;-69
2021/05/22 03:13:54;;;;;;;6.63;3.93;;;;;;;13.32;61.88;98200.66;263088;1104;115082;-66
2021/05/22 03:18:58;;;;;;;6.00;3.80;;;;;;;13.31;62.13;98207.80;263055;1099;114842;-68
2021/05/22 03:24:02;;;;;;;9.63;3.75;;;;;;;13.32;61.77;98209.52;262892;1104;115952;-67
2021/05/22 03:29:06;;;;;;;5.33;3.73;;;;;;;13.32;62.08;98211.35;263025;1099;114530;-65
2021/05/22 03:34:10;;;;;;;6.43;3.65;;;;;;;13.32;61.99;98198.83;263094;1104;115146;-65
2021/05/22 03:39:14;;;;;;;7.23;3.97;;;;;;;13.34;62.07;98207.55;262629;1100;116183;-66
2021/05/22 03:44:17;;;;;;;7.27;4.10;;;;;;;13.36;62.97;98183.38;262488;1105;114624;-67
2021/05/22 03:49:21;;;;;;;5.53;3.87;;;;;;;13.38;62.63;98192.96;262723;1102;114949;-65
2021/05/22 03:54:25;;;;;;;6.73;3.87;;;;;;;13.40;61.85;98196.33;263082;1104;115097;-65
2021/05/22 03:59:28;;;;;;;7.00;3.60;;;;;;;13.45;62.71;98186.09;263107;1100;114607;-65
2021/05/22 04:04:32;;;;;;;4.77;3.30;;;;;;;13.51;62.56;98165.98;262827;1104;115373;-68
2021/05/22 04:09:36;;;;;;;4.47;3.30;;;;;;;13.57;62.91;98170.79;262725;1100;115315;-65
2021/05/22 04:14:39;;;;;;;7.57;3.80;;;;;;;13.62;62.44;98165.90;263158;1100;115301;-67
2021/05/22 04:19:43;;;;;;;8.37;4.10;;;;;;;13.65;62.35;98159.41;263069;1099;115005;-67
2021/05/22 04:24:47;;;;;;;6.85;4.08;;;;;;;13.66;62.23;98161.13;263136;1105;115347;-66
2021/05/22 04:29:50;;;;;;;7.13;3.87;;;;;;;13.66;62.55;98169.98;262764;1100;115133;-65
2021/05/22 04:34:54;;;;;;;10.20;4.37;;;;;;;13.67;62.67;98160.97;263118;1104;114652;-66
2021/05/22 04:39:58;;;;;;;5.30;4.20;;;;;;;13.69;62.28;98166.20;263031;1100;115660;-67
2021/05/22 04:45:03;;;;;;;6.13;3.67;;;;;;;13.78;62.49;98165.36;263071;1104;117158;-66
2021/05/22 04:50:08;;;;;;;6.88;4.23;;;;;;;13.94;62.72;98154.14;262766;1100;115131;-67
2021/05/22 04:55:12;;;;;;;;;;;;;;;14.12;62.42;98151.63;262896;1104;114639;-65
2021/05/22 05:00:16;;;;;;;9.47;4.93;;;;;;;14.24;62.56;98169.25;263189;1099;102233;-66
2021/05/22 05:05:20;;;;;;;9.43;4.93;;;;;;;14.32;62.39;98153.33;263018;1104;114696;-66
2021/05/22 05:10:23;;;;;;;11.83;4.67;;;;;;;14.41;61.87;98152.50;262713;1102;114946;-65
2021/05/22 05:15:27;;;;;;;8.85;4.80;;;;;;;14.52;62.17;98159.56;263114;1104;115127;-66
2021/05/22 05:20:31;;;;;;;8.57;4.00;;;;;;;14.58;61.83;98176.91;262944;1100;114949;-67
2021/05/22 05:25:34;;;;;;;7.13;3.83;;;;;;;14.65;61.96;98181.55;262928;1104;114634;-69
2021/05/22 05:30:38;;;;;;;7.40;3.97;;;;;;;14.77;61.97;98198.30;263053;1099;114728;-66
2021/05/22 05:35:42;;;;;;;5.70;3.27;;;;;;;14.89;61.57;98202.52;263118;1104;114484;-67
2021/05/22 05:40:45;;;;;;;12.30;4.05;;;;;;;15.07;61.24;98193.75;262776;1100;114793;-67
2021/05/22 05:45:50;;;;;;;9.33;4.37;;;;;;;15.20;61.21;98205.01;262738;1100;114657;-67
2021/05/22 05:50:53;;;;;;;5.70;3.53;;;;;;;15.30;60.71;98195.10;262733;1100;115520;-67
2021/05/22 05:55:57;;;;;;;12.60;3.83;;;;;;;15.42;60.46;98181.50;262957;1104;114853;-67
2021/05/22 06:01:07;;;;;;;7.23;3.57;;;;;;;15.60;60.70;98177.08;262927;1100;115518;-67
2021/05/22 06:06:11;;;;;;;6.15;3.90;;;;;;;15.83;60.70;98177.56;263101;1104;115049;-67
2021/05/22 06:11:17;;;;;;;11.03;4.00;;;;;;;16.01;60.24;98199.06;262030;1100;114428;-66
2021/05/22 06:16:27;;;;;;;6.03;3.50;;;;;;;16.11;60.04;98215.96;262584;1100;115725;-66
2021/05/22 06:21:34;;;;;;;7.00;4.10;;;;;;;16.14;59.58;98207.61;263089;1104;114805;-66
2021/05/22 06:26:37;;;;;;;8.83;4.60;;;;;;;16.20;59.56;98200.77;262854;1104;115071;-66
2021/05/22 06:31:41;;;;;;;10.28;4.03;;;;;;;16.23;59.04;98203.16;262544;1105;114566;-66
2021/05/22 06:36:45;;;;;;;6.07;3.50;;;;;;;16.25;58.84;98185.91;263118;1104;115201;-65
2021/05/22 06:41:49;;;;;;;7.37;3.70;;;;;;;16.28;58.67;98198.19;263119;1099;114946;-66
2021/05/22 06:46:53;;;;;;;6.25;3.45;;;;;;;16.31;58.58;98197.89;263102;1104;114549;-65
2021/05/22 06:51:57;;;;;;;6.60;3.20;;;;;;;16.34;58.55;98205.64;263066;1099;114798;-66
2021/05/22 06:57:00;;;;;;;6.03;4.03;;;;;;;16.39;58.70;98183.70;262700;1104;114767;-64
2021/05/22 07:02:04;;;;;;;7.67;4.10;;;;;;;16.49;58.77;98179.09;263049;1099;115303;-66
2021/05/22 07:07:08;;;;;;;11.67;4.40;;;;;;;16.56;58.40;98182.84;262729;1104;115351;-65
2021/05/22 07:12:12;;;;;;;7.03;3.57;;;;;;;16.65;58.42;98181.93;262425;1104;115667;-65
2021/05/22 07:17:16;;;;;;;5.85;3.98;;;;;;;16.72;58.11;98187.53;262965;1104;116795;-66
2021/05/22 07:22:19;;;;;;;7.95;4.30;;;;;;;16.78;58.18;98190.47;262838;1100;115909;-65
2021/05/22 07:27:23;;;;;;;7.25;4.00;;;;;;;16.89;57.97;98191.23;262590;1104;114821;-65
2021/05/22 07:32:27;;;;;;;8.53;4.17;;;;;;;16.96;57.67;98168.09;262506;1104;115336;-65
2021/05/22 07:37:31;;;;;;;6.65;3.78;;;;;;;17.03;57.80;98169.16;263069;1104;115063;-65
2021/05/22 07:42:35;;;;;;;9.07;3.30;;;;;;;17.08;57.46;98164.13;262994;1099;115224;-67
2021/05/22 07:47:41;;;;;;;7.78;3.48;;;;;;;17.15;57.52;98169.72;263031;1104;114586;-65
2021/05/22 07:52:44;;;;;;;4.07;2.30;;;;;;;17.24;56.90;98171.47;262504;1099;115281;-65
2021/05/22 07:57:49;;;;;;;7.27;3.03;;;;;;;17.35;56.66;98168.50;262851;1104;114411;-67
2021/05/22 08:02:52;;;;;;;7.68;2.90;;;;;;;17.44;56.85;98172.09;261519;1104;114784;-68
2021/05/22 08:07:56;;;;;;;4.07;2.50;;;;;;;17.53;56.52;98159.51;263185;1104;115092;-68
2021/05/22 08:12:59;;;;;;;6.28;2.18;;;;;;;17.58;55.74;98158.03;263117;1099;115696;-66
2021/05/22 08:18:04;;;;;;;5.20;2.40;;;;;;;17.58;55.62;98171.48;263194;1104;116298;-65
2021/05/22 08:23:08;;;;;;;8.23;2.43;;;;;;;17.58;55.63;98167.95;263128;1100;115222;-68
2021/05/22 08:28:19;;;;;;;7.03;2.17;;;;;;;17.56;55.53;98167.27;263170;1104;115277;-68
2021/05/22 08:33:22;;;;;;;4.43;2.17;;;;;;;17.54;55.27;98151.30;263098;1099;114641;-66
2021/05/22 08:38:26;;;;;;;5.93;2.03;;;;;;;17.52;55.29;98144.38;263108;1104;114479;-65
2021/05/22 08:43:30;;;;;;;7.50;2.07;;;;;;;17.51;55.21;98135.47;263153;1099;114316;-68
2021/05/22 08:48:36;;;;;;;4.58;2.00;;;;;;;17.53;54.86;98137.98;262856;1104;114522;-66
2021/05/22 08:53:40;;;;;;;4.70;2.10;;;;;;;17.53;55.13;98137.98;263145;1099;114411;-64
2021/05/22 08:58:44;;;;;;;5.20;1.83;;;;;;;17.54;54.85;98137.00;263152;1104;114495;-65
2021/05/22 09:03:49;;;;;;;2.00;1.38;;;;;;;17.54;54.70;98137.84;263137;1100;115086;-66
2021/05/22 09:09:05;;;;;;;5.40;1.80;;;;;;;17.56;54.71;98129.59;263184;1104;114872;-65
2021/05/22 09:14:09;;;;;;;3.10;2.23;;;;;;;17.54;55.01;98134.31;263166;1099;114559;-65
2021/05/22 09:19:13;;;;;;;4.67;2.20;;;;;;;17.48;54.63;98141.17;263188;1104;114788;-65
2021/05/22 09:24:17;;;;;;;4.90;2.27;;;;;;;17.42;54.98;98144.50;263081;1100;115038;-66
2021/05/22 09:29:25;;;;;;;4.90;2.50;;;;;;;17.33;55.46;98169.69;263091;1104;115065;-65
2021/05/22 09:34:30;;;;;;;10.33;2.77;;;;;;;17.23;55.65;98183.23;263019;1099;114907;-64
2021/05/22 09:39:47;;;;;;;4.70;3.15;;;;;;;17.12;55.90;98204.98;263134;1104;115153;-65
2021/05/22 09:44:51;;;;;;;5.10;3.43;;;;;;;17.00;56.46;98212.47;263040;1099;114791;-67
2021/05/22 09:49:54;;;;;;;4.90;3.17;;;;;;;16.86;57.20;98229.16;262780;1104;115309;-67
2021/05/22 09:54:58;;;;;;;6.93;2.98;;;;;;;16.65;57.30;98256.31;263135;1099;115331;-65
2021/05/22 10:00:08;;;;;;;5.37;3.03;;;;;;;16.41;57.78;98262.28;263269;1104;114480;-64
2021/05/22 10:05:18;;;;;;;9.00;3.60;;;;;;;16.16;57.92;98259.29;263201;1099;114302;-65
2021/05/22 10:10:24;;;;;;;7.03;4.57;;;;;;;15.82;58.05;98269.77;263148;1104;114895;-67
2021/05/22 10:15:27;;;;;;;10.13;4.63;;;;;;;15.55;58.85;98267.84;262747;1099;115075;-64
2021/05/22 10:20:31;;;;;;;9.15;5.08;;;;;;;15.29;59.35;98286.41;263110;1104;115090;-68
2021/05/22 10:25:36;;;;;;;11.93;5.25;;;;;;;15.09;60.30;98283.73;263148;1099;115271;-63
2021/05/22 10:30:40;;;;;;;8.40;4.85;;;;;;;14.89;60.47;98290.09;263181;1104;114842;-66
2021/05/22 10:35:54;;;;;;;7.37;4.40;;;;;;;14.76;61.32;98290.36;262532;1097;114654;-67
2021/05/22 10:40:58;;;;;;;10.80;4.03;;;;;;;14.76;61.46;98295.72;263136;1104;114937;-68
2021/05/22 10:46:05;;;;;;;10.93;4.80;;;;;;;14.75;61.75;98288.68;263191;1099;114816;-68
2021/05/22 10:51:32;;;;;;;6.37;4.03;;;;;;;14.72;62.32;98301.51;263180;1104;114854;-65
2021/05/22 10:57:02;;;;;;;7.80;4.07;;;;;;;14.68;62.38;98300.94;263222;1099;115115;-64
2021/05/22 11:02:33;;;;;;;8.23;3.77;;;;;;;14.62;62.91;98314.88;263189;1104;114784;-68
2021/05/22 11:07:37;;;;;;;4.60;2.80;;;;;;;14.57;62.60;98306.40;263139;1099;115389;-67
2021/05/22 11:12:43;;;;;;;6.48;3.40;;;;;;;14.61;62.99;98310.52;263054;1104;115572;-65
2021/05/22 11:17:50;;;;;;;4.90;2.70;;;;;;;14.64;63.42;98324.47;262772;1100;115099;-66
2021/05/22 11:22:56;;;;;;;4.27;2.20;;;;;;;14.64;63.18;98327.16;262829;1105;116171;-67
2021/05/22 11:28:05;;;;;;;3.83;2.30;;;;;;;14.60;63.42;98324.88;263085;1104;115509;-66
2021/05/22 11:33:26;;;;;;;5.33;2.50;;;;;;;14.56;63.59;98326.98;263063;1103;114954;-64
2021/05/22 11:38:32;;;;;;;3.20;1.90;;;;;;;14.56;63.23;98332.33;263104;1099;114950;-66
2021/05/22 11:43:41;;;;;;;3.63;1.90;;;;;;;14.59;63.20;98320.51;263005;1104;114500;-66
2021/05/22 11:48:53;;;;;;;3.50;1.45;;;;;;;14.66;63.19;98338.55;263147;1098;115740;-66
2021/05/22 11:54:01;;;;;;;2.87;1.40;;;;;;;14.75;62.98;98336.05;263085;1104;114562;-66
2021/05/22 11:59:07;;;;;;;4.23;1.93;;;;;;;14.82;63.40;98339.86;263066;1100;115395;-65
2021/05/22 12:04:13;;;;;;;3.63;2.25;;;;;;;14.81;63.10;98341.70;262597;1104;114857;-67
2021/05/22 12:09:25;;;;;;;3.03;2.10;;;;;;;14.68;63.46;98343.79;262625;1100;114807;-65
2021/05/22 12:14:42;;;;;;;3.73;1.90;;;;;;;14.64;62.93;98340.55;262954;1104;115310;-67
2021/05/22 12:19:51;;;;;;;3.83;1.83;;;;;;;14.60;62.93;98341.78;262643;1104;114776;-66
2021/05/22 12:24:55;;;;;;;2.50;1.90;;;;;;;14.57;63.32;98352.80;262330;1100;115084;-65
2021/05/22 12:29:59;;;;;;;2.48;1.80;;;;;;;14.60;63.57;98357.00;262823;1100;115009;-67
2021/05/22 12:35:07;;;;;;;2.28;1.83;;;;;;;14.64;63.27;98353.09;263060;1104;115276;-67
2021/05/22 12:40:11;;;;;;;29.70;20.10;;;;;;;14.66;63.73;98353.78;262505;1100;114673;-65
2021/05/22 12:45:17;;;;;;;2.65;1.73;;;;;;;14.75;63.66;98346.77;262386;1104;115084;-65
2021/05/22 12:50:31;;;;;;;2.53;1.97;;;;;;;14.78;63.90;98336.62;262897;1100;114982;-65
2021/05/22 12:55:37;;;;;;;3.33;2.10;;;;;;;14.90;63.65;98335.48;262247;1104;114627;-66
2021/05/22 13:00:41;;;;;;;3.80;2.20;;;;;;;15.03;63.75;98327.17;262625;1100;114774;-66
2021/05/22 13:05:48;;;;;;;2.43;2.10;;;;;;;15.26;63.63;98332.27;262606;1104;114683;-65
2021/05/22 13:10:51;;;;;;;3.43;2.00;;;;;;;15.31;62.84;98317.42;263033;1104;115371;-65
2021/05/22 13:16:03;;;;;;;3.43;1.57;;;;;;;15.22;62.16;98323.66;262497;1104;115215;-66
2021/05/22 13:21:15;;;;;;;2.83;1.90;;;;;;;15.16;61.96;98326.91;262538;1100;115014;-63
2021/05/22 13:26:24;;;;;;;3.47;1.90;;;;;;;15.14;61.65;98318.98;262777;1104;114898;-67
2021/05/22 13:31:31;;;;;;;2.80;1.97;;;;;;;15.23;62.14;98322.66;262851;1104;114598;-64
2021/05/22 13:36:36;;;;;;;2.17;1.70;;;;;;;15.34;61.75;98322.50;263022;1104;114922;-63
2021/05/22 13:41:43;;;;;;;3.70;2.00;;;;;;;15.43;61.50;98323.49;262665;1100;115472;-66
2021/05/22 13:46:49;;;;;;;3.48;2.00;;;;;;;15.65;61.27;98335.72;263100;1104;115354;-66
2021/05/22 13:51:53;;;;;;;3.20;2.17;;;;;;;15.64;60.92;98343.92;262331;1104;115192;-65
2021/05/22 13:56:57;;;;;;;3.63;2.18;;;;;;;15.54;60.73;98339.41;262886;1104;114620;-67
2021/05/22 14:02:03;;;;;;;4.00;2.03;;;;;;;15.52;60.59;98332.49;262085;1102;115075;-65
2021/05/22 14:07:07;;;;;;;3.73;2.00;;;;;;;15.48;60.55;98339.14;262841;1104;115008;-63
2021/05/22 14:12:10;;;;;;;6.48;2.03;;;;;;;15.43;60.30;98344.10;263034;1099;115158;-68
2021/05/22 14:17:14;;;;;;;3.40;2.00;;;;;;;15.41;60.38;98332.66;262753;1105;115286;-65
2021/05/22 14:22:19;;;;;;;4.50;2.23;;;;;;;15.43;59.80;98346.78;263048;1099;115700;-65
2021/05/22 14:27:23;;;;;;;;;;;;;;;15.36;59.42;98350.03;263076;1104;115636;-63
2021/05/22 14:32:27;;;;;;;5.03;2.10;;;;;;;15.35;59.80;98358.20;263055;1099;101411;-63
2021/05/22 14:37:32;;;;;;;3.50;2.10;;;;;;;15.47;60.00;98346.34;263088;1104;115555;-65
2021/05/22 14:42:36;;;;;;;3.63;2.00;;;;;;;15.55;59.25;98345.62;262932;1100;114551;-65
2021/05/22 14:47:43;;;;;;;4.38;2.18;;;;;;;15.55;59.31;98346.45;262939;1104;114589;-65
2021/05/22 14:52:48;;;;;;;3.80;2.10;;;;;;;15.59;59.02;98349.70;262594;1100;115403;-65
2021/05/22 14:57:52;;;;;;;3.78;2.08;;;;;;;15.66;58.96;98344.61;262923;1104;114932;-64
2021/05/22 15:02:56;;;;;;;5.45;2.10;;;;;;;15.75;58.88;98336.58;262879;1100;114835;-64
2021/05/22 15:08:00;;;;;;;2.53;1.60;;;;;;;15.84;58.43;98343.76;263080;1104;115992;-66
2021/05/22 15:13:03;;;;;;;5.63;1.60;;;;;;;15.89;58.27;98339.78;262920;1100;115351;-66
2021/05/22 15:18:07;;;;;;;4.93;2.10;;;;;;;15.95;57.80;98353.47;262924;1104;114999;-65
2021/05/22 15:23:13;;;;;;;3.70;1.57;;;;;;;15.97;57.63;98351.50;262884;1100;115051;-64
2021/05/22 15:28:16;;;;;;;4.23;1.73;;;;;;;15.99;57.51;98346.81;262693;1104;114457;-64
2021/05/22 15:33:21;;;;;;;5.15;2.15;;;;;;;16.06;57.26;98349.75;262966;1099;115030;-65
2021/05/22 15:38:24;;;;;;;4.70;2.10;;;;;;;16.09;57.35;98352.98;263061;1104;115405;-66
2021/05/22 15:43:29;;;;;;;6.80;2.23;;;;;;;16.09;56.65;98352.15;263022;1100;114607;-66
2021/05/22 15:59:28;;;;;;;3.73;2.03;;;;;;;15.92;56.92;98344.87;263062;1103;114847;-65
2021/05/22 16:05:03;;;;;;;4.13;2.17;;;;;;;15.87;57.06;98352.52;263010;1104;115081;-67
2021/05/22 16:10:08;;;;;;;3.10;1.70;;;;;;;15.85;57.00;98345.44;263001;1100;114822;-64
2021/05/22 16:15:15;;;;;;;6.87;2.20;;;;;;;15.86;57.10;98362.38;262706;1104;115002;-65
2021/05/22 16:20:18;;;;;;;4.83;1.70;;;;;;;15.81;56.67;98395.03;263062;1100;114480;-65
2021/05/22 16:25:23;;;;;;;7.18;2.00;;;;;;;15.67;56.09;98379.39;262821;1104;114973;-65
2021/05/22 16:30:27;;;;;;;2.75;1.20;;;;;;;15.66;56.65;98366.06;262865;1099;114973;-64
2021/05/22 16:35:31;;;;;;;5.17;1.40;;;;;;;15.70;57.00;98365.69;262745;1104;115267;-65
2021/05/22 16:40:34;;;;;;;4.07;1.20;;;;;;;15.62;56.21;98373.55;262792;1100;115364;-65
2021/05/22 16:45:39;;;;;;;2.73;1.60;;;;;;;15.47;56.47;98377.68;263033;1104;115261;-65
2021/05/22 16:50:42;;;;;;;5.10;1.35;;;;;;;15.34;56.80;98373.44;262731;1099;114671;-67
2021/05/22 16:55:46;;;;;;;5.05;1.85;;;;;;;15.23;56.46;98373.59;262932;1104;115049;-67
2021/05/22 17:00:50;;;;;;;7.13;1.38;;;;;;;15.20;57.54;98371.19;262878;1099;114881;-65
2021/05/22 17:05:54;;;;;;;5.23;1.50;;;;;;;15.16;57.17;98380.51;262697;1104;115199;-67
2021/05/22 17:10:57;;;;;;;5.65;1.58;;;;;;;15.14;57.12;98387.83;262820;1104;115242;-66
2021/05/22 17:16:01;;;;;;;4.83;1.87;;;;;;;15.13;57.69;98388.83;262998;1099;114740;-67
2021/05/22 17:21:06;;;;;;;4.37;1.70;;;;;;;15.12;57.93;98395.18;263018;1104;114614;-67
2021/05/22 17:26:10;;;;;;;;;;;;;;;15.14;57.65;98391.35;262954;1099;115122;-67
2021/05/22 17:31:14;;;;;;;3.53;1.83;;;;;;;15.14;57.91;98402.07;263117;1104;101286;-67
2021/05/22 17:36:18;;;;;;;5.68;2.33;;;;;;;15.16;58.21;98401.95;262846;1100;115457;-67
2021/05/22 17:41:22;;;;;;;4.10;2.15;;;;;;;15.16;58.32;98407.31;262977;1104;115402;-66
2021/05/22 17:46:25;;;;;;;3.05;1.98;;;;;;;15.16;58.29;98412.67;263068;1100;117363;-67
2021/05/22 17:51:33;;;;;;;5.23;2.87;;;;;;;15.19;58.82;98409.72;262576;1105;114968;-67
2021/05/22 17:56:41;;;;;;;7.90;3.17;;;;;;;15.20;58.21;98415.92;262938;1100;115341;-68
2021/05/22 18:01:44;;;;;;;8.10;2.90;;;;;;;15.24;58.52;98426.20;262652;1104;114931;-67
2021/05/22 18:06:48;;;;;;;6.73;2.70;;;;;;;15.22;58.54;98420.16;263054;1104;115060;-68
2021/05/22 18:11:52;;;;;;;4.65;2.30;;;;;;;15.18;58.41;98425.92;263090;1104;114533;-68
2021/05/22 18:16:56;;;;;;;4.57;2.50;;;;;;;15.10;58.57;98422.11;263006;1100;114473;-68
2021/05/22 18:22:00;;;;;;;8.73;2.90;;;;;;;15.06;58.66;98427.89;263012;1104;115149;-68
2021/05/22 18:27:04;;;;;;;5.90;3.03;;;;;;;15.00;58.76;98423.92;262756;1099;115111;-67
2021/05/22 18:32:08;;;;;;;6.85;3.10;;;;;;;14.96;58.77;98437.74;262664;1104;115069;-68
2021/05/22 18:37:13;;;;;;;6.53;3.20;;;;;;;14.84;58.98;98448.58;262577;1102;115118;-67
2021/05/22 18:42:17;;;;;;;7.80;3.40;;;;;;;14.76;59.02;98464.47;263037;1102;114853;-67
2021/05/22 18:47:20;;;;;;;10.73;3.60;;;;;;;14.70;59.45;98470.36;263075;1099;114942;-65
2021/05/22 18:52:24;;;;;;;6.68;3.25;;;;;;;14.70;59.26;98474.88;263076;1104;114534;-66
2021/05/22 18:57:28;;;;;;;9.15;3.30;;;;;;;14.74;59.32;98492.37;262833;1104;115114;-66
2021/05/22 19:02:32;;;;;;;7.03;3.23;;;;;;;14.74;59.59;98498.59;262893;1104;115664;-65
2021/05/22 19:07:38;;;;;;;12.75;3.48;;;;;;;14.74;59.26;98513.80;262878;1100;114649;-65
2021/05/22 19:12:43;;;;;;;6.88;3.18;;;;;;;14.73;59.31;98512.95;263032;1104;115286;-64
2021/05/22 19:17:48;;;;;;;8.75;3.10;;;;;;;14.72;58.73;98532.70;263045;1099;115139;-65
2021/05/22 19:22:51;;;;;;;6.53;3.55;;;;;;;14.67;58.62;98548.30;262691;1105;115344;-63
2021/05/22 19:27:55;;;;;;;8.70;3.33;;;;;;;14.63;58.65;98569.14;262846;1099;115400;-63
2021/05/22 19:32:59;;;;;;;4.43;2.50;;;;;;;14.56;58.97;98567.13;262908;1104;115440;-64
2021/05/22 19:38:03;;;;;;;8.33;3.00;;;;;;;14.45;59.02;98576.06;262756;1100;114901;-64
2021/05/22 19:43:08;;;;;;;7.60;3.30;;;;;;;14.28;58.92;98588.20;263090;1103;115862;-64
2021/05/22 19:48:11;;;;;;;6.83;2.63;;;;;;;14.17;59.10;98578.41;262710;1104;115030;-63
2021/05/22 19:53:15;;;;;;;6.85;2.90;;;;;;;14.06;58.65;98578.47;262471;1104;115511;-65
2021/05/22 19:58:20;;;;;;;4.08;2.43;;;;;;;13.99;59.08;98579.93;262900;1099;115598;-65
2021/05/22 20:03:25;;;;;;;4.25;2.10;;;;;;;13.95;58.36;98586.52;262676;1104;116601;-64
2021/05/22 20:08:29;;;;;;;3.85;1.63;;;;;;;13.88;58.39;98585.33;262880;1100;114535;-65
2021/05/22 20:13:34;;;;;;;4.63;1.70;;;;;;;13.85;58.74;98599.80;263103;1104;115130;-64
2021/05/22 20:18:37;;;;;;;5.88;1.43;;;;;;;13.80;58.37;98602.02;263041;1100;114955;-65
2021/05/22 20:23:41;;;;;;;2.07;1.47;;;;;;;13.78;57.63;98595.09;262913;1104;114754;-65
2021/05/22 20:28:45;;;;;;;3.07;1.73;;;;;;;13.72;57.85;98613.36;262825;1100;114861;-63
2021/05/22 20:33:51;;;;;;;5.08;1.80;;;;;;;13.69;57.82;98615.44;262925;1104;114936;-64
2021/05/22 20:38:55;;;;;;;3.93;2.33;;;;;;;13.64;56.96;98618.46;262637;1104;115617;-64
2021/05/22 20:43:59;;;;;;;5.23;2.53;;;;;;;13.62;57.32;98632.92;262670;1104;114779;-65
2021/05/22 20:49:04;;;;;;;6.37;2.13;;;;;;;13.56;56.91;98698.45;262661;1100;115312;-64
2021/05/22 20:54:08;;;;;;;8.43;1.88;;;;;;;13.53;57.62;98716.56;263129;1104;114788;-65
2021/05/22 20:59:12;;;;;;;4.13;1.40;;;;;;;13.43;57.26;98748.52;263066;1099;114953;-65
2021/05/22 21:04:16;;;;;;;4.10;1.20;;;;;;;13.25;57.24;98694.69;263145;1104;115113;-65
2021/05/22 21:09:20;;;;;;;2.40;1.30;;;;;;;13.03;57.22;98663.41;263006;1100;114989;-67
2021/05/22 21:14:24;;;;;;;3.87;0.97;;;;;;;12.82;57.90;98663.27;262936;1104;115201;-66
2021/05/22 21:19:28;;;;;;;3.03;0.80;;;;;;;12.68;57.96;98642.97;263057;1100;114755;-66
2021/05/22 21:24:31;;;;;;;1.98;0.70;;;;;;;12.64;58.79;98651.34;263135;1100;114715;-66
2021/05/22 21:29:35;;;;;;;1.43;0.70;;;;;;;12.59;58.71;98662.36;263129;1104;114423;-67
2021/05/22 21:34:39;;;;;;;1.35;0.90;;;;;;;12.61;59.15;98657.77;263118;1104;115021;-66
2021/05/22 21:39:43;;;;;;;2.20;1.00;;;;;;;12.62;59.46;98656.78;263105;1099;114525;-65
2021/05/22 21:44:46;;;;;;;1.83;0.95;;;;;;;12.61;58.91;98655.09;262690;1102;115218;-66
2021/05/22 21:49:50;;;;;;;2.85;1.18;;;;;;;12.60;59.37;98649.85;263085;1100;114867;-66
2021/05/22 21:54:54;;;;;;;1.50;0.80;;;;;;;12.50;59.55;98645.24;263121;1104;115037;-67
2021/05/22 21:59:58;;;;;;;1.33;0.90;;;;;;;12.45;59.28;98646.55;262903;1097;114396;-66
2021/05/22 22:05:02;;;;;;;2.25;0.90;;;;;;;12.39;59.77;98658.52;262919;1104;115610;-65
2021/05/22 22:10:06;;;;;;;2.10;1.10;;;;;;;12.32;59.80;98657.29;262647;1099;114456;-64
2021/05/22 22:15:13;;;;;;;3.98;1.63;;;;;;;12.27;60.07;98664.80;262686;1104;114885;-64
2021/05/22 22:20:21;;;;;;;2.53;1.27;;;;;;;12.21;60.27;98673.27;262708;1104;114970;-64
2021/05/22 22:25:26;;;;;;;3.00;1.47;;;;;;;12.19;60.27;98673.36;262863;1104;114894;-66
2021/05/22 22:30:30;;;;;;;;;;;;;;;12.22;60.94;98682.95;263083;1100;114922;-66
2021/05/22 22:35:36;;;;;;;4.60;1.33;;;;;;;12.29;61.03;98686.87;262967;1104;101378;-65
2021/05/22 22:40:40;;;;;;;2.00;1.30;;;;;;;12.31;60.33;98679.61;263073;1100;114612;-65
2021/05/22 22:45:45;;;;;;;4.27;1.57;;;;;;;12.33;61.25;98695.49;262442;1104;114943;-64
2021/05/22 22:50:50;;;;;;;4.58;1.85;;;;;;;12.31;60.82;98699.14;263089;1099;114999;-65
2021/05/22 22:55:57;;;;;;;3.58;1.40;;;;;;;12.26;60.89;98756.47;263169;1104;114296;-65
2021/05/22 23:01:04;;;;;;;4.17;2.20;;;;;;;12.25;61.37;98747.61;262795;1100;115081;-65
2021/05/22 23:06:10;;;;;;;4.45;2.20;;;;;;;12.26;60.48;98727.11;263017;1103;114873;-64
2021/05/22 23:11:14;;;;;;;3.05;1.90;;;;;;;12.21;61.53;98713.28;262390;1104;114963;-66
2021/05/22 23:16:17;;;;;;;3.27;1.87;;;;;;;12.19;61.04;98702.70;262821;1104;115539;-62
2021/05/22 23:21:21;;;;;;;3.10;2.10;;;;;;;12.22;60.99;98698.97;263083;1099;114951;-62
2021/05/22 23:26:25;;;;;;;4.73;2.23;;;;;;;12.28;62.01;98699.36;263164;1104;115039;-65
2021/05/22 23:31:29;;;;;;;5.25;2.28;;;;;;;12.35;61.68;98688.23;262849;1104;114667;-65